sensor_id;sensor_type;location;lat;lon;timestamp;P1;durP1;ratioP1;P2;durP2;ratioP2
47089;SDS011;32840;52.516;13.294;2022-12-29T00:02:31;5.53;;;2.22;;
47089;SDS011;32840;52.516;13.294;2022-12-29T00:05:17;4.32;;;1.85;;
47089;SDS011;32840;52.516;13.294;2022-12-29T00:08:02;5.25;;;2.10;;
47089;SDS011;32840;52.516;13.294;2022-12-29T00:10:46;7.10;;;2.00;;
47089;SDS011;32840;52.516;13.294;2022-12-29T00:13:31;3.20;;;1.85;;
47089;SDS011;32840;52.516;13.294;2022-12-29T00:16:35;4.50;;;2.20;;
47089;SDS011;32840;52.516;13.294;2022-12-29T00:19:21;3.70;;;1.92;;
47089;SDS011;32840;52.516;13.294;2022-12-29T00:22:25;3.30;;;1.95;;
47089;SDS011;32840;52.516;13.294;2022-12-29T00:25:29;3.50;;;1.80;;
47089;SDS011;32840;52.516;13.294;2022-12-29T00:28:33;3.47;;;1.55;;
47089;SDS011;32840;52.516;13.294;2022-12-29T00:31:36;3.42;;;1.65;;
47089;SDS011;32840;52.516;13.294;2022-12-29T00:34:40;4.22;;;2.25;;
47089;SDS011;32840;52.516;13.294;2022-12-29T00:37:43;4.13;;;1.70;;
47089;SDS011;32840;52.516;13.294;2022-12-29T00:40:52;4.53;;;2.17;;
47089;SDS011;32840;52.516;13.294;2022-12-29T00:43:55;3.45;;;1.80;;
47089;SDS011;32840;52.516;13.294;2022-12-29T00:46:54;4.15;;;1.73;;
47089;SDS011;32840;52.516;13.294;2022-12-29T00:49:40;4.97;;;1.90;;
47089;SDS011;32840;52.516;13.294;2022-12-29T00:52:25;3.10;;;2.08;;
47089;SDS011;32840;52.516;13.294;2022-12-29T00:55:10;3.35;;;1.70;;
47089;SDS011;32840;52.516;13.294;2022-12-29T00:57:56;4.85;;;1.88;;
47089;SDS011;32840;52.516;13.294;2022-12-29T01:00:41;3.45;;;1.85;;
47089;SDS011;32840;52.516;13.294;2022-12-29T01:03:26;3.03;;;1.63;;
47089;SDS011;32840;52.516;13.294;2022-12-29T01:06:12;6.63;;;1.83;;
47089;SDS011;32840;52.516;13.294;2022-12-29T01:08:56;3.60;;;1.90;;
47089;SDS011;32840;52.516;13.294;2022-12-29T01:12:00;4.85;;;1.70;;
47089;SDS011;32840;52.516;13.294;2022-12-29T01:14:45;6.53;;;1.70;;
47089;SDS011;32840;52.516;13.294;2022-12-29T01:17:30;4.97;;;2.08;;
47089;SDS011;32840;52.516;13.294;2022-12-29T01:20:14;5.35;;;1.90;;
47089;SDS011;32840;52.516;13.294;2022-12-29T01:22:59;3.45;;;1.90;;
47089;SDS011;32840;52.516;13.294;2022-12-29T01:25:44;3.42;;;1.75;;
47089;SDS011;32840;52.516;13.294;2022-12-29T01:28:29;3.40;;;1.80;;
47089;SDS011;32840;52.516;13.294;2022-12-29T01:31:14;4.82;;;1.65;;
47089;SDS011;32840;52.516;13.294;2022-12-29T01:33:59;3.38;;;1.70;;
47089;SDS011;32840;52.516;13.294;2022-12-29T01:36:46;3.95;;;1.55;;
47089;SDS011;32840;52.516;13.294;2022-12-29T01:39:31;2.60;;;1.35;;
47089;SDS011;32840;52.516;13.294;2022-12-29T01:42:16;5.78;;;2.00;;
47089;SDS011;32840;52.516;13.294;2022-12-29T01:45:03;6.72;;;1.70;;
47089;SDS011;32840;52.516;13.294;2022-12-29T01:47:59;4.88;;;1.70;;
47089;SDS011;32840;52.516;13.294;2022-12-29T01:50:51;4.20;;;1.75;;
47089;SDS011;32840;52.516;13.294;2022-12-29T01:53:37;3.30;;;1.60;;
47089;SDS011;32840;52.516;13.294;2022-12-29T01:56:22;4.10;;;1.88;;
47089;SDS011;32840;52.516;13.294;2022-12-29T01:59:09;3.60;;;1.70;;
47089;SDS011;32840;52.516;13.294;2022-12-29T02:01:58;2.38;;;1.75;;
47089;SDS011;32840;52.516;13.294;2022-12-29T02:04:44;3.45;;;1.88;;
47089;SDS011;32840;52.516;13.294;2022-12-29T02:07:29;4.32;;;1.70;;
47089;SDS011;32840;52.516;13.294;2022-12-29T02:10:15;6.43;;;1.85;;
47089;SDS011;32840;52.516;13.294;2022-12-29T02:13:01;3.70;;;1.85;;
47089;SDS011;32840;52.516;13.294;2022-12-29T02:28:34;2.80;;;1.77;;
47089;SDS011;32840;52.516;13.294;2022-12-29T02:41:16;3.42;;;1.90;;
47089;SDS011;32840;52.516;13.294;2022-12-29T02:47:16;4.68;;;1.80;;
47089;SDS011;32840;52.516;13.294;2022-12-29T02:50:18;2.72;;;1.60;;
47089;SDS011;32840;52.516;13.294;2022-12-29T02:53:13;2.78;;;1.48;;
47089;SDS011;32840;52.516;13.294;2022-12-29T02:56:00;5.97;;;1.98;;
47089;SDS011;32840;52.516;13.294;2022-12-29T02:58:45;3.00;;;1.70;;
47089;SDS011;32840;52.516;13.294;2022-12-29T03:10:59;7.72;;;1.70;;
47089;SDS011;32840;52.516;13.294;2022-12-29T03:13:47;3.60;;;1.70;;
47089;SDS011;32840;52.516;13.294;2022-12-29T03:16:57;5.65;;;1.85;;
47089;SDS011;32840;52.516;13.294;2022-12-29T03:19:48;2.60;;;1.52;;
47089;SDS011;32840;52.516;13.294;2022-12-29T03:22:38;4.40;;;1.92;;
47089;SDS011;32840;52.516;13.294;2022-12-29T03:25:32;2.72;;;1.60;;
47089;SDS011;32840;52.516;13.294;2022-12-29T03:28:22;3.28;;;1.73;;
47089;SDS011;32840;52.516;13.294;2022-12-29T03:31:13;5.80;;;1.65;;
47089;SDS011;32840;52.516;13.294;2022-12-29T03:33:59;2.85;;;1.73;;
47089;SDS011;32840;52.516;13.294;2022-12-29T03:36:50;5.28;;;1.50;;
47089;SDS011;32840;52.516;13.294;2022-12-29T03:39:42;3.88;;;1.65;;
47089;SDS011;32840;52.516;13.294;2022-12-29T03:42:28;3.65;;;1.88;;
47089;SDS011;32840;52.516;13.294;2022-12-29T03:45:15;5.32;;;1.90;;
47089;SDS011;32840;52.516;13.294;2022-12-29T03:48:00;2.97;;;1.60;;
47089;SDS011;32840;52.516;13.294;2022-12-29T03:50:45;4.38;;;1.70;;
47089;SDS011;32840;52.516;13.294;2022-12-29T03:53:30;4.60;;;1.50;;
47089;SDS011;32840;52.516;13.294;2022-12-29T03:56:15;4.18;;;1.38;;
47089;SDS011;32840;52.516;13.294;2022-12-29T03:58:59;5.47;;;1.55;;
47089;SDS011;32840;52.516;13.294;2022-12-29T04:01:44;4.10;;;1.85;;
47089;SDS011;32840;52.516;13.294;2022-12-29T04:04:31;4.38;;;1.20;;
47089;SDS011;32840;52.516;13.294;2022-12-29T04:07:16;3.47;;;1.80;;
47089;SDS011;32840;52.516;13.294;2022-12-29T04:10:01;6.15;;;1.85;;
47089;SDS011;32840;52.516;13.294;2022-12-29T04:12:47;6.13;;;1.70;;
47089;SDS011;32840;52.516;13.294;2022-12-29T04:15:32;5.50;;;1.92;;
47089;SDS011;32840;52.516;13.294;2022-12-29T04:18:17;3.72;;;1.38;;
47089;SDS011;32840;52.516;13.294;2022-12-29T04:21:02;3.50;;;1.73;;
47089;SDS011;32840;52.516;13.294;2022-12-29T04:23:47;3.33;;;1.60;;
47089;SDS011;32840;52.516;13.294;2022-12-29T04:26:39;6.03;;;1.25;;
47089;SDS011;32840;52.516;13.294;2022-12-29T04:29:25;5.15;;;2.75;;
47089;SDS011;32840;52.516;13.294;2022-12-29T04:32:11;5.97;;;2.05;;
47089;SDS011;32840;52.516;13.294;2022-12-29T04:34:56;3.20;;;1.50;;
47089;SDS011;32840;52.516;13.294;2022-12-29T04:37:41;2.83;;;1.58;;
47089;SDS011;32840;52.516;13.294;2022-12-29T04:40:26;1.85;;;1.10;;
47089;SDS011;32840;52.516;13.294;2022-12-29T04:43:12;4.10;;;1.45;;
47089;SDS011;32840;52.516;13.294;2022-12-29T04:45:58;3.33;;;1.42;;
47089;SDS011;32840;52.516;13.294;2022-12-29T04:48:43;2.78;;;1.40;;
47089;SDS011;32840;52.516;13.294;2022-12-29T04:51:27;6.22;;;1.70;;
47089;SDS011;32840;52.516;13.294;2022-12-29T04:54:12;3.17;;;1.50;;
47089;SDS011;32840;52.516;13.294;2022-12-29T04:56:57;4.20;;;1.55;;
47089;SDS011;32840;52.516;13.294;2022-12-29T04:59:42;2.85;;;1.90;;
47089;SDS011;32840;52.516;13.294;2022-12-29T05:02:27;3.50;;;1.58;;
47089;SDS011;32840;52.516;13.294;2022-12-29T05:05:12;2.25;;;1.33;;
47089;SDS011;32840;52.516;13.294;2022-12-29T05:07:58;3.78;;;1.80;;
47089;SDS011;32840;52.516;13.294;2022-12-29T05:10:46;3.05;;;1.63;;
47089;SDS011;32840;52.516;13.294;2022-12-29T05:13:31;2.72;;;1.65;;
47089;SDS011;32840;52.516;13.294;2022-12-29T05:16:16;4.32;;;1.52;;
47089;SDS011;32840;52.516;13.294;2022-12-29T05:19:01;3.40;;;1.55;;
47089;SDS011;32840;52.516;13.294;2022-12-29T05:21:46;3.00;;;1.70;;
47089;SDS011;32840;52.516;13.294;2022-12-29T05:24:31;6.00;;;1.80;;
47089;SDS011;32840;52.516;13.294;2022-12-29T05:27:16;3.30;;;1.17;;
47089;SDS011;32840;52.516;13.294;2022-12-29T05:30:03;3.33;;;1.23;;
47089;SDS011;32840;52.516;13.294;2022-12-29T05:32:48;4.68;;;1.60;;
47089;SDS011;32840;52.516;13.294;2022-12-29T05:35:32;3.22;;;1.42;;
47089;SDS011;32840;52.516;13.294;2022-12-29T05:38:17;2.55;;;1.48;;
47089;SDS011;32840;52.516;13.294;2022-12-29T05:41:02;4.43;;;1.60;;
47089;SDS011;32840;52.516;13.294;2022-12-29T05:43:47;3.30;;;1.80;;
47089;SDS011;32840;52.516;13.294;2022-12-29T05:46:33;2.83;;;1.60;;
47089;SDS011;32840;52.516;13.294;2022-12-29T05:49:17;3.30;;;1.52;;
47089;SDS011;32840;52.516;13.294;2022-12-29T05:52:02;4.20;;;1.40;;
47089;SDS011;32840;52.516;13.294;2022-12-29T05:54:47;2.47;;;1.30;;
47089;SDS011;32840;52.516;13.294;2022-12-29T05:57:32;5.25;;;1.50;;
47089;SDS011;32840;52.516;13.294;2022-12-29T06:00:20;3.15;;;1.70;;
47089;SDS011;32840;52.516;13.294;2022-12-29T06:03:05;7.45;;;1.67;;
47089;SDS011;32840;52.516;13.294;2022-12-29T06:05:50;2.90;;;1.63;;
47089;SDS011;32840;52.516;13.294;2022-12-29T06:08:34;3.00;;;1.83;;
47089;SDS011;32840;52.516;13.294;2022-12-29T06:11:19;2.08;;;1.30;;
47089;SDS011;32840;52.516;13.294;2022-12-29T06:14:05;3.00;;;1.38;;
47089;SDS011;32840;52.516;13.294;2022-12-29T06:16:50;3.97;;;1.38;;
47089;SDS011;32840;52.516;13.294;2022-12-29T06:19:35;2.65;;;1.33;;
47089;SDS011;32840;52.516;13.294;2022-12-29T06:22:20;2.65;;;1.25;;
47089;SDS011;32840;52.516;13.294;2022-12-29T06:25:06;3.22;;;1.42;;
47089;SDS011;32840;52.516;13.294;2022-12-29T06:27:51;4.43;;;1.50;;
47089;SDS011;32840;52.516;13.294;2022-12-29T06:30:38;4.70;;;1.75;;
47089;SDS011;32840;52.516;13.294;2022-12-29T06:33:24;2.70;;;1.20;;
47089;SDS011;32840;52.516;13.294;2022-12-29T06:36:10;5.25;;;1.40;;
47089;SDS011;32840;52.516;13.294;2022-12-29T06:38:55;4.70;;;1.60;;
47089;SDS011;32840;52.516;13.294;2022-12-29T06:41:40;5.03;;;1.33;;
47089;SDS011;32840;52.516;13.294;2022-12-29T06:44:25;5.32;;;1.30;;
47089;SDS011;32840;52.516;13.294;2022-12-29T06:47:09;2.38;;;1.30;;
47089;SDS011;32840;52.516;13.294;2022-12-29T06:49:54;3.90;;;1.80;;
47089;SDS011;32840;52.516;13.294;2022-12-29T06:52:39;3.97;;;1.38;;
47089;SDS011;32840;52.516;13.294;2022-12-29T06:55:24;3.53;;;1.48;;
47089;SDS011;32840;52.516;13.294;2022-12-29T06:58:09;2.67;;;1.38;;
47089;SDS011;32840;52.516;13.294;2022-12-29T07:00:54;4.20;;;1.60;;
47089;SDS011;32840;52.516;13.294;2022-12-29T07:03:41;2.50;;;1.20;;
47089;SDS011;32840;52.516;13.294;2022-12-29T07:06:26;4.28;;;1.40;;
47089;SDS011;32840;52.516;13.294;2022-12-29T07:09:11;4.20;;;1.50;;
47089;SDS011;32840;52.516;13.294;2022-12-29T07:11:57;5.07;;;1.30;;
47089;SDS011;32840;52.516;13.294;2022-12-29T07:14:42;4.03;;;1.20;;
47089;SDS011;32840;52.516;13.294;2022-12-29T07:17:28;3.28;;;1.10;;
47089;SDS011;32840;52.516;13.294;2022-12-29T07:20:14;4.85;;;1.63;;
47089;SDS011;32840;52.516;13.294;2022-12-29T07:22:59;7.60;;;1.40;;
47089;SDS011;32840;52.516;13.294;2022-12-29T07:25:43;4.47;;;1.40;;
47089;SDS011;32840;52.516;13.294;2022-12-29T07:28:30;2.13;;;0.93;;
47089;SDS011;32840;52.516;13.294;2022-12-29T07:31:20;4.77;;;1.33;;
47089;SDS011;32840;52.516;13.294;2022-12-29T07:34:07;2.83;;;1.40;;
47089;SDS011;32840;52.516;13.294;2022-12-29T07:36:53;6.18;;;1.38;;
47089;SDS011;32840;52.516;13.294;2022-12-29T07:39:39;4.10;;;1.35;;
47089;SDS011;32840;52.516;13.294;2022-12-29T07:42:23;4.05;;;1.45;;
47089;SDS011;32840;52.516;13.294;2022-12-29T07:45:08;4.35;;;1.30;;
47089;SDS011;32840;52.516;13.294;2022-12-29T07:47:53;2.83;;;1.10;;
47089;SDS011;32840;52.516;13.294;2022-12-29T07:50:38;5.35;;;1.73;;
47089;SDS011;32840;52.516;13.294;2022-12-29T07:53:23;3.88;;;1.38;;
47089;SDS011;32840;52.516;13.294;2022-12-29T07:56:08;3.30;;;1.23;;
47089;SDS011;32840;52.516;13.294;2022-12-29T07:58:53;8.20;;;2.13;;
47089;SDS011;32840;52.516;13.294;2022-12-29T08:01:38;5.10;;;1.50;;
47089;SDS011;32840;52.516;13.294;2022-12-29T08:04:25;3.70;;;1.40;;
47089;SDS011;32840;52.516;13.294;2022-12-29T08:07:12;16.90;;;2.17;;
47089;SDS011;32840;52.516;13.294;2022-12-29T08:09:58;7.20;;;1.90;;
47089;SDS011;32840;52.516;13.294;2022-12-29T08:12:43;14.82;;;2.80;;
47089;SDS011;32840;52.516;13.294;2022-12-29T08:15:28;7.78;;;1.30;;
47089;SDS011;32840;52.516;13.294;2022-12-29T08:18:13;7.70;;;1.45;;
47089;SDS011;32840;52.516;13.294;2022-12-29T08:21:02;10.82;;;1.65;;
47089;SDS011;32840;52.516;13.294;2022-12-29T08:23:47;26.70;;;3.55;;
47089;SDS011;32840;52.516;13.294;2022-12-29T08:26:32;26.67;;;3.30;;
47089;SDS011;32840;52.516;13.294;2022-12-29T08:29:19;23.23;;;2.78;;
47089;SDS011;32840;52.516;13.294;2022-12-29T08:32:05;22.25;;;3.00;;
47089;SDS011;32840;52.516;13.294;2022-12-29T08:34:50;27.30;;;4.18;;
47089;SDS011;32840;52.516;13.294;2022-12-29T08:37:35;25.95;;;3.92;;
47089;SDS011;32840;52.516;13.294;2022-12-29T08:40:21;10.85;;;2.22;;
47089;SDS011;32840;52.516;13.294;2022-12-29T08:43:06;16.90;;;3.03;;
47089;SDS011;32840;52.516;13.294;2022-12-29T08:45:51;20.98;;;3.03;;
47089;SDS011;32840;52.516;13.294;2022-12-29T08:48:36;2.97;;;1.00;;
47089;SDS011;32840;52.516;13.294;2022-12-29T08:51:21;13.85;;;2.13;;
47089;SDS011;32840;52.516;13.294;2022-12-29T08:54:06;14.90;;;2.28;;
47089;SDS011;32840;52.516;13.294;2022-12-29T08:56:50;4.55;;;1.48;;
47089;SDS011;32840;52.516;13.294;2022-12-29T08:59:35;8.23;;;1.48;;
47089;SDS011;32840;52.516;13.294;2022-12-29T09:02:20;3.90;;;1.50;;
47089;SDS011;32840;52.516;13.294;2022-12-29T09:05:06;3.40;;;1.50;;
47089;SDS011;32840;52.516;13.294;2022-12-29T09:07:54;3.90;;;1.92;;
47089;SDS011;32840;52.516;13.294;2022-12-29T09:10:39;4.15;;;1.33;;
47089;SDS011;32840;52.516;13.294;2022-12-29T09:13:24;4.22;;;1.58;;
47089;SDS011;32840;52.516;13.294;2022-12-29T09:16:09;3.83;;;1.55;;
47089;SDS011;32840;52.516;13.294;2022-12-29T09:18:54;3.75;;;1.60;;
47089;SDS011;32840;52.516;13.294;2022-12-29T09:21:39;1.90;;;0.93;;
47089;SDS011;32840;52.516;13.294;2022-12-29T09:24:23;2.33;;;1.20;;
47089;SDS011;32840;52.516;13.294;2022-12-29T09:27:08;4.07;;;1.40;;
47089;SDS011;32840;52.516;13.294;2022-12-29T09:29:56;3.05;;;1.10;;
47089;SDS011;32840;52.516;13.294;2022-12-29T09:32:48;3.90;;;1.25;;
47089;SDS011;32840;52.516;13.294;2022-12-29T09:35:49;3.03;;;1.30;;
47089;SDS011;32840;52.516;13.294;2022-12-29T09:38:37;5.03;;;1.70;;
47089;SDS011;32840;52.516;13.294;2022-12-29T09:41:25;2.58;;;1.42;;
47089;SDS011;32840;52.516;13.294;2022-12-29T09:44:20;3.53;;;1.35;;
47089;SDS011;32840;52.516;13.294;2022-12-29T09:47:13;4.50;;;1.40;;
47089;SDS011;32840;52.516;13.294;2022-12-29T09:50:03;4.00;;;1.60;;
47089;SDS011;32840;52.516;13.294;2022-12-29T09:53:14;4.15;;;1.58;;
47089;SDS011;32840;52.516;13.294;2022-12-29T09:56:04;3.17;;;1.75;;
47089;SDS011;32840;52.516;13.294;2022-12-29T09:58:59;4.55;;;1.05;;
47089;SDS011;32840;52.516;13.294;2022-12-29T10:01:54;3.47;;;1.60;;
47089;SDS011;32840;52.516;13.294;2022-12-29T10:04:48;5.90;;;1.38;;
47089;SDS011;32840;52.516;13.294;2022-12-29T10:07:38;4.07;;;1.25;;
47089;SDS011;32840;52.516;13.294;2022-12-29T10:13:27;3.38;;;1.23;;
47089;SDS011;32840;52.516;13.294;2022-12-29T10:16:37;5.03;;;1.83;;
47089;SDS011;32840;52.516;13.294;2022-12-29T10:19:48;4.65;;;2.13;;
47089;SDS011;32840;52.516;13.294;2022-12-29T10:22:49;3.97;;;1.55;;
47089;SDS011;32840;52.516;13.294;2022-12-29T10:25:43;4.80;;;2.28;;
47089;SDS011;32840;52.516;13.294;2022-12-29T10:28:40;6.40;;;1.40;;
47089;SDS011;32840;52.516;13.294;2022-12-29T10:34:44;3.75;;;1.73;;
47089;SDS011;32840;52.516;13.294;2022-12-29T10:40:50;7.68;;;1.63;;
47089;SDS011;32840;52.516;13.294;2022-12-29T10:43:45;6.43;;;1.40;;
47089;SDS011;32840;52.516;13.294;2022-12-29T10:46:33;3.53;;;1.10;;
47089;SDS011;32840;52.516;13.294;2022-12-29T10:49:20;5.28;;;1.30;;
47089;SDS011;32840;52.516;13.294;2022-12-29T10:52:05;3.22;;;1.50;;
47089;SDS011;32840;52.516;13.294;2022-12-29T10:57:44;3.92;;;1.55;;
47089;SDS011;32840;52.516;13.294;2022-12-29T11:00:31;5.75;;;1.70;;
47089;SDS011;32840;52.516;13.294;2022-12-29T11:03:22;4.55;;;1.50;;
47089;SDS011;32840;52.516;13.294;2022-12-29T11:06:35;3.67;;;1.30;;
47089;SDS011;32840;52.516;13.294;2022-12-29T11:09:24;3.75;;;1.67;;
47089;SDS011;32840;52.516;13.294;2022-12-29T11:12:20;4.65;;;1.55;;
47089;SDS011;32840;52.516;13.294;2022-12-29T11:17:57;2.60;;;1.67;;
47089;SDS011;32840;52.516;13.294;2022-12-29T11:20:44;3.88;;;2.30;;
47089;SDS011;32840;52.516;13.294;2022-12-29T11:26:23;2.03;;;1.00;;
47089;SDS011;32840;52.516;13.294;2022-12-29T11:32:10;5.35;;;1.50;;
47089;SDS011;32840;52.516;13.294;2022-12-29T11:35:17;3.97;;;1.13;;
47089;SDS011;32840;52.516;13.294;2022-12-29T11:41:09;4.20;;;1.52;;
47089;SDS011;32840;52.516;13.294;2022-12-29T11:43:57;5.28;;;1.17;;
47089;SDS011;32840;52.516;13.294;2022-12-29T11:46:44;2.20;;;1.00;;
47089;SDS011;32840;52.516;13.294;2022-12-29T11:49:33;3.40;;;1.63;;
47089;SDS011;32840;52.516;13.294;2022-12-29T11:52:22;4.00;;;1.35;;
47089;SDS011;32840;52.516;13.294;2022-12-29T11:55:16;10.50;;;1.75;;
47089;SDS011;32840;52.516;13.294;2022-12-29T11:58:11;4.15;;;1.13;;
47089;SDS011;32840;52.516;13.294;2022-12-29T12:01:00;4.30;;;1.20;;
47089;SDS011;32840;52.516;13.294;2022-12-29T12:04:10;6.05;;;1.13;;
47089;SDS011;32840;52.516;13.294;2022-12-29T12:07:07;2.45;;;0.85;;
47089;SDS011;32840;52.516;13.294;2022-12-29T12:10:00;3.13;;;0.90;;
47089;SDS011;32840;52.516;13.294;2022-12-29T12:13:06;4.27;;;1.70;;
47089;SDS011;32840;52.516;13.294;2022-12-29T12:16:21;6.32;;;1.40;;
47089;SDS011;32840;52.516;13.294;2022-12-29T12:22:03;3.03;;;1.33;;
47089;SDS011;32840;52.516;13.294;2022-12-29T12:25:00;7.57;;;1.10;;
47089;SDS011;32840;52.516;13.294;2022-12-29T12:28:00;7.15;;;1.70;;
47089;SDS011;32840;52.516;13.294;2022-12-29T12:30:50;5.30;;;1.25;;
47089;SDS011;32840;52.516;13.294;2022-12-29T12:33:42;3.35;;;1.10;;
47089;SDS011;32840;52.516;13.294;2022-12-29T12:36:48;2.22;;;0.70;;
47089;SDS011;32840;52.516;13.294;2022-12-29T12:46:54;2.17;;;1.00;;
47089;SDS011;32840;52.516;13.294;2022-12-29T12:49:26;4.60;;;1.20;;
47089;SDS011;32840;52.516;13.294;2022-12-29T12:52:29;2.17;;;1.00;;
47089;SDS011;32840;52.516;13.294;2022-12-29T12:58:29;6.60;;;1.40;;
47089;SDS011;32840;52.516;13.294;2022-12-29T13:04:32;3.30;;;0.90;;
47089;SDS011;32840;52.516;13.294;2022-12-29T13:14:11;7.07;;;1.38;;
47089;SDS011;32840;52.516;13.294;2022-12-29T13:17:29;5.05;;;1.45;;
47089;SDS011;32840;52.516;13.294;2022-12-29T13:20:41;4.82;;;1.45;;
47089;SDS011;32840;52.516;13.294;2022-12-29T13:24:00;6.78;;;1.20;;
47089;SDS011;32840;52.516;13.294;2022-12-29T13:30:00;2.83;;;0.80;;
47089;SDS011;32840;52.516;13.294;2022-12-29T13:36:14;5.15;;;1.30;;
47089;SDS011;32840;52.516;13.294;2022-12-29T13:39:10;4.97;;;1.98;;
47089;SDS011;32840;52.516;13.294;2022-12-29T13:42:16;3.20;;;1.20;;
47089;SDS011;32840;52.516;13.294;2022-12-29T13:45:12;9.00;;;1.85;;
47089;SDS011;32840;52.516;13.294;2022-12-29T13:48:06;4.40;;;1.17;;
47089;SDS011;32840;52.516;13.294;2022-12-29T13:50:58;2.67;;;1.23;;
47089;SDS011;32840;52.516;13.294;2022-12-29T13:53:54;1.77;;;1.00;;
47089;SDS011;32840;52.516;13.294;2022-12-29T13:57:31;4.82;;;1.70;;
47089;SDS011;32840;52.516;13.294;2022-12-29T14:03:20;2.58;;;1.05;;
47089;SDS011;32840;52.516;13.294;2022-12-29T14:06:22;2.63;;;1.10;;
47089;SDS011;32840;52.516;13.294;2022-12-29T14:12:31;5.30;;;1.40;;
47089;SDS011;32840;52.516;13.294;2022-12-29T14:15:22;3.80;;;1.65;;
47089;SDS011;32840;52.516;13.294;2022-12-29T14:18:13;3.13;;;1.10;;
47089;SDS011;32840;52.516;13.294;2022-12-29T14:21:07;5.72;;;1.40;;
47089;SDS011;32840;52.516;13.294;2022-12-29T14:30:47;3.65;;;1.30;;
47089;SDS011;32840;52.516;13.294;2022-12-29T14:33:36;3.15;;;1.73;;
47089;SDS011;32840;52.516;13.294;2022-12-29T14:36:21;3.63;;;1.83;;
47089;SDS011;32840;52.516;13.294;2022-12-29T14:39:31;3.70;;;1.65;;
47089;SDS011;32840;52.516;13.294;2022-12-29T14:42:23;7.50;;;1.95;;
47089;SDS011;32840;52.516;13.294;2022-12-29T14:47:59;4.75;;;1.38;;
47089;SDS011;32840;52.516;13.294;2022-12-29T14:51:26;2.17;;;1.30;;
47089;SDS011;32840;52.516;13.294;2022-12-29T15:00:32;15.77;;;1.67;;
47089;SDS011;32840;52.516;13.294;2022-12-29T15:03:20;11.95;;;6.30;;
47089;SDS011;32840;52.516;13.294;2022-12-29T15:06:07;18.95;;;3.20;;
47089;SDS011;32840;52.516;13.294;2022-12-29T15:09:04;9.38;;;2.38;;
47089;SDS011;32840;52.516;13.294;2022-12-29T15:12:15;19.48;;;2.38;;
47089;SDS011;32840;52.516;13.294;2022-12-29T15:15:26;11.77;;;1.63;;
47089;SDS011;32840;52.516;13.294;2022-12-29T15:21:06;6.65;;;1.70;;
47089;SDS011;32840;52.516;13.294;2022-12-29T15:23:50;3.22;;;1.10;;
47089;SDS011;32840;52.516;13.294;2022-12-29T15:26:44;6.30;;;1.60;;
47089;SDS011;32840;52.516;13.294;2022-12-29T15:29:41;7.80;;;1.77;;
47089;SDS011;32840;52.516;13.294;2022-12-29T15:32:28;10.25;;;1.50;;
47089;SDS011;32840;52.516;13.294;2022-12-29T15:35:27;24.48;;;2.70;;
47089;SDS011;32840;52.516;13.294;2022-12-29T15:38:21;9.18;;;2.53;;
47089;SDS011;32840;52.516;13.294;2022-12-29T15:44:17;32.25;;;3.20;;
47089;SDS011;32840;52.516;13.294;2022-12-29T15:47:18;28.48;;;4.25;;
47089;SDS011;32840;52.516;13.294;2022-12-29T15:50:12;8.27;;;2.22;;
47089;SDS011;32840;52.516;13.294;2022-12-29T15:53:02;35.83;;;5.00;;
47089;SDS011;32840;52.516;13.294;2022-12-29T15:55:54;18.38;;;2.85;;
47089;SDS011;32840;52.516;13.294;2022-12-29T15:58:51;51.22;;;7.07;;
47089;SDS011;32840;52.516;13.294;2022-12-29T16:01:36;54.45;;;7.25;;
47089;SDS011;32840;52.516;13.294;2022-12-29T16:04:21;30.45;;;4.45;;
47089;SDS011;32840;52.516;13.294;2022-12-29T16:07:21;40.35;;;5.28;;
47089;SDS011;32840;52.516;13.294;2022-12-29T16:16:16;42.65;;;5.70;;
47089;SDS011;32840;52.516;13.294;2022-12-29T16:19:27;30.65;;;5.60;;
47089;SDS011;32840;52.516;13.294;2022-12-29T16:25:22;8.68;;;1.40;;
47089;SDS011;32840;52.516;13.294;2022-12-29T16:28:20;37.40;;;4.88;;
47089;SDS011;32840;52.516;13.294;2022-12-29T16:31:16;17.60;;;3.25;;
47089;SDS011;32840;52.516;13.294;2022-12-29T16:34:12;13.57;;;6.30;;
47089;SDS011;32840;52.516;13.294;2022-12-29T16:37:29;23.20;;;3.75;;
47089;SDS011;32840;52.516;13.294;2022-12-29T16:46:27;39.30;;;6.43;;
47089;SDS011;32840;52.516;13.294;2022-12-29T16:49:14;33.03;;;4.97;;
47089;SDS011;32840;52.516;13.294;2022-12-29T16:52:10;32.70;;;5.97;;
47089;SDS011;32840;52.516;13.294;2022-12-29T16:55:17;14.80;;;2.67;;
47089;SDS011;32840;52.516;13.294;2022-12-29T16:58:03;23.30;;;3.97;;
47089;SDS011;32840;52.516;13.294;2022-12-29T17:00:48;22.35;;;3.92;;
47089;SDS011;32840;52.516;13.294;2022-12-29T17:03:35;29.10;;;4.90;;
47089;SDS011;32840;52.516;13.294;2022-12-29T17:06:24;27.30;;;4.15;;
47089;SDS011;32840;52.516;13.294;2022-12-29T17:09:25;44.92;;;4.85;;
47089;SDS011;32840;52.516;13.294;2022-12-29T17:12:31;23.85;;;4.30;;
47089;SDS011;32840;52.516;13.294;2022-12-29T17:15:23;15.23;;;2.88;;
47089;SDS011;32840;52.516;13.294;2022-12-29T17:18:16;14.02;;;2.30;;
47089;SDS011;32840;52.516;13.294;2022-12-29T17:21:03;32.78;;;5.32;;
47089;SDS011;32840;52.516;13.294;2022-12-29T17:23:47;26.25;;;5.50;;
47089;SDS011;32840;52.516;13.294;2022-12-29T17:26:32;38.05;;;6.85;;
47089;SDS011;32840;52.516;13.294;2022-12-29T17:32:21;14.35;;;3.33;;
47089;SDS011;32840;52.516;13.294;2022-12-29T17:35:12;18.20;;;4.25;;
47089;SDS011;32840;52.516;13.294;2022-12-29T17:37:58;19.98;;;5.53;;
47089;SDS011;32840;52.516;13.294;2022-12-29T17:40:44;50.45;;;8.63;;
47089;SDS011;32840;52.516;13.294;2022-12-29T17:43:29;18.27;;;4.30;;
47089;SDS011;32840;52.516;13.294;2022-12-29T17:46:14;36.22;;;8.13;;
47089;SDS011;32840;52.516;13.294;2022-12-29T17:48:59;14.25;;;2.80;;
47089;SDS011;32840;52.516;13.294;2022-12-29T17:51:45;21.95;;;4.80;;
47089;SDS011;32840;52.516;13.294;2022-12-29T17:54:33;15.30;;;3.90;;
47089;SDS011;32840;52.516;13.294;2022-12-29T17:57:18;12.38;;;3.63;;
47089;SDS011;32840;52.516;13.294;2022-12-29T18:00:04;16.35;;;5.70;;
47089;SDS011;32840;52.516;13.294;2022-12-29T18:02:51;19.27;;;4.60;;
47089;SDS011;32840;52.516;13.294;2022-12-29T18:05:37;6.82;;;2.00;;
47089;SDS011;32840;52.516;13.294;2022-12-29T18:08:23;16.52;;;4.75;;
47089;SDS011;32840;52.516;13.294;2022-12-29T18:11:15;14.40;;;3.25;;
47089;SDS011;32840;52.516;13.294;2022-12-29T18:14:10;14.90;;;2.90;;
47089;SDS011;32840;52.516;13.294;2022-12-29T18:16:56;4.28;;;1.50;;
47089;SDS011;32840;52.516;13.294;2022-12-29T18:19:42;20.63;;;4.60;;
47089;SDS011;32840;52.516;13.294;2022-12-29T18:22:27;11.75;;;2.90;;
47089;SDS011;32840;52.516;13.294;2022-12-29T18:25:24;26.40;;;5.00;;
47089;SDS011;32840;52.516;13.294;2022-12-29T18:28:12;11.68;;;2.58;;
47089;SDS011;32840;52.516;13.294;2022-12-29T18:30:58;13.00;;;2.97;;
47089;SDS011;32840;52.516;13.294;2022-12-29T18:33:44;13.23;;;3.17;;
47089;SDS011;32840;52.516;13.294;2022-12-29T18:36:30;7.05;;;1.55;;
47089;SDS011;32840;52.516;13.294;2022-12-29T18:39:16;8.85;;;2.10;;
47089;SDS011;32840;52.516;13.294;2022-12-29T18:42:01;8.32;;;2.58;;
47089;SDS011;32840;52.516;13.294;2022-12-29T18:44:47;9.60;;;2.65;;
47089;SDS011;32840;52.516;13.294;2022-12-29T18:47:32;7.80;;;2.60;;
47089;SDS011;32840;52.516;13.294;2022-12-29T18:50:17;7.82;;;2.28;;
47089;SDS011;32840;52.516;13.294;2022-12-29T18:53:03;11.65;;;2.40;;
47089;SDS011;32840;52.516;13.294;2022-12-29T18:55:49;12.23;;;2.83;;
47089;SDS011;32840;52.516;13.294;2022-12-29T18:58:35;9.63;;;2.53;;
47089;SDS011;32840;52.516;13.294;2022-12-29T19:01:24;6.47;;;2.15;;